createdAt,value
2022-10-18T00:01:27.703Z,85.35
2022-10-18T00:03:56.622Z,85.37
2022-10-18T00:06:29.460Z,85.43
2022-10-18T00:08:58.130Z,85.38
2022-10-18T00:11:26.991Z,85.23
2022-10-18T00:14:00.985Z,85.25
2022-10-18T00:16:31.465Z,85.30
2022-10-18T00:19:00.518Z,85.17
2022-10-18T00:21:29.695Z,84.77
2022-10-18T00:23:58.522Z,84.68
2022-10-18T00:26:30.239Z,85.19
2022-10-18T00:29:02.136Z,84.82
2022-10-18T00:31:35.010Z,84.78
2022-10-18T00:34:06.738Z,84.88
2022-10-18T00:36:36.632Z,84.76
2022-10-18T00:39:08.031Z,84.69
2022-10-18T00:41:39.550Z,84.73
2022-10-18T00:44:47.766Z,84.70
2022-10-18T00:47:20.743Z,84.80
2022-10-18T00:49:54.931Z,84.83
2022-10-18T00:52:30.722Z,85.00
2022-10-18T00:55:00.217Z,84.90
2022-10-18T00:57:29.411Z,84.85
2022-10-18T00:59:58.405Z,84.83
2022-10-18T01:02:30.119Z,84.84
2022-10-18T01:04:59.158Z,84.87
2022-10-18T01:08:04.387Z,84.95
2022-10-18T01:10:44.559Z,84.78
2022-10-18T01:13:33.073Z,84.95
2022-10-18T01:16:12.530Z,85.07
2022-10-18T01:18:50.179Z,85.05
2022-10-18T01:21:44.607Z,84.99
2022-10-18T01:25:12.219Z,85.41
2022-10-18T01:27:52.167Z,85.40
2022-10-18T01:30:48.991Z,85.11
2022-10-18T01:33:37.084Z,85.50
2022-10-18T01:36:16.162Z,85.60
2022-10-18T01:38:48.890Z,85.63
2022-10-18T01:41:21.614Z,85.61
2022-10-18T01:43:56.051Z,85.76
2022-10-18T01:46:31.008Z,85.89
2022-10-18T01:49:00.795Z,85.86
2022-10-18T01:51:32.247Z,85.85
2022-10-18T01:54:02.253Z,85.52
2022-10-18T01:56:45.343Z,86.03
2022-10-18T01:59:34.053Z,86.02
2022-10-18T02:02:20.370Z,86.05
2022-10-18T02:04:55.742Z,86.31
2022-10-18T02:07:33.794Z,85.86
2022-10-18T02:10:12.398Z,86.41
2022-10-18T02:12:45.697Z,86.19
2022-10-18T02:15:23.433Z,86.28
2022-10-18T02:17:57.340Z,86.29
2022-10-18T02:20:29.177Z,86.03
2022-10-18T02:23:01.478Z,86.11
2022-10-18T02:25:35.190Z,86.45
2022-10-18T02:28:05.570Z,86.49
2022-10-18T02:30:45.594Z,86.30
2022-10-18T02:33:22.523Z,86.29
2022-10-18T02:35:58.390Z,86.08
2022-10-18T02:38:29.826Z,86.11
2022-10-18T02:40:58.804Z,86.17
2022-10-18T02:43:28.243Z,86.21
2022-10-18T02:45:57.142Z,86.35
2022-10-18T02:48:27.279Z,86.32
2022-10-18T02:50:56.034Z,86.19
2022-10-18T02:53:24.739Z,86.30
2022-10-18T02:55:53.623Z,86.32
2022-10-18T02:58:22.375Z,86.42
2022-10-18T03:00:51.836Z,86.61
2022-10-18T03:03:20.669Z,86.40
2022-10-18T03:05:52.975Z,86.34
2022-10-18T03:08:23.015Z,86.47
2022-10-18T03:10:52.128Z,86.61
2022-10-18T03:13:20.922Z,86.72
2022-10-18T03:15:50.087Z,86.54
2022-10-18T03:18:23.420Z,86.62
2022-10-18T03:20:53.571Z,86.61
2022-10-18T03:23:22.322Z,86.58
2022-10-18T03:25:51.371Z,86.70
2022-10-18T03:28:20.038Z,86.60
2022-10-18T03:30:48.821Z,86.49
2022-10-18T03:33:26.591Z,86.81
2022-10-18T03:35:58.911Z,86.72
2022-10-18T03:38:30.066Z,86.65
2022-10-18T03:41:00.641Z,86.80
2022-10-18T03:43:29.512Z,86.88
2022-10-18T03:45:58.379Z,86.85
2022-10-18T03:48:27.262Z,87.12
2022-10-18T03:50:57.538Z,86.92
2022-10-18T03:53:26.406Z,87.11
2022-10-18T03:55:56.939Z,87.36
2022-10-18T03:58:26.083Z,87.18
2022-10-18T04:00:56.461Z,87.28
2022-10-18T04:03:25.310Z,87.36
2022-10-18T04:05:54.333Z,87.31
2022-10-18T04:08:24.508Z,87.35
2022-10-18T04:10:53.693Z,87.33
2022-10-18T04:13:22.419Z,87.59
2022-10-18T04:15:51.449Z,87.66
2022-10-18T04:18:20.352Z,87.73
2022-10-18T04:20:49.215Z,87.76
2022-10-18T04:23:18.049Z,87.80
2022-10-18T04:25:48.729Z,87.91
2022-10-18T04:28:17.395Z,87.81
2022-10-18T04:30:51.407Z,87.96
2022-10-18T04:33:20.859Z,88.02
2022-10-18T04:35:54.288Z,87.80
2022-10-18T04:38:23.076Z,88.09
2022-10-18T04:40:53.154Z,88.19
2022-10-18T04:43:21.990Z,88.43
2022-10-18T04:45:51.279Z,88.67
2022-10-18T04:48:20.656Z,88.65
2022-10-18T04:50:50.637Z,88.74
2022-10-18T04:53:20.358Z,88.77
2022-10-18T04:55:52.416Z,88.63
2022-10-18T04:58:21.595Z,88.68
2022-10-18T05:00:53.175Z,88.57
2022-10-18T05:03:22.809Z,88.67
2022-10-18T05:06:06.445Z,88.89
2022-10-18T05:08:37.498Z,88.62
2022-10-18T05:13:38.403Z,88.49
2022-10-18T05:16:08.372Z,88.38
2022-10-18T05:18:37.241Z,88.39
2022-10-18T05:21:06.731Z,88.47
2022-10-18T05:23:35.487Z,88.44
2022-10-18T05:26:08.202Z,88.69
2022-10-18T05:28:40.501Z,88.52
2022-10-18T05:31:12.807Z,88.71
2022-10-18T05:33:41.893Z,88.63
2022-10-18T05:36:11.563Z,88.52
2022-10-18T05:38:43.483Z,88.59
2022-10-18T05:41:14.441Z,88.50
2022-10-18T05:43:43.758Z,88.47
2022-10-18T05:46:15.549Z,88.42
2022-10-18T05:48:45.246Z,88.55
2022-10-18T05:51:14.050Z,88.61
2022-10-18T05:53:42.803Z,88.43
2022-10-18T05:56:15.958Z,88.35
2022-10-18T05:58:44.825Z,88.43
2022-10-18T06:01:13.542Z,88.37
2022-10-18T06:03:42.302Z,88.49
2022-10-18T06:06:13.726Z,88.39
2022-10-18T06:08:44.082Z,88.51
2022-10-18T06:11:17.354Z,88.39
2022-10-18T06:13:48.364Z,88.42
2022-10-18T06:16:19.827Z,88.45
2022-10-18T06:18:50.557Z,88.32
2022-10-18T06:21:20.244Z,88.26
2022-10-18T06:23:50.916Z,88.15
2022-10-18T06:26:21.430Z,88.03
2022-10-18T06:28:50.304Z,88.12
2022-10-18T06:31:19.218Z,88.25
2022-10-18T06:33:47.967Z,88.09
2022-10-18T06:36:18.770Z,87.94
2022-10-18T06:38:47.451Z,88.09
2022-10-18T06:41:16.512Z,88.12
2022-10-18T06:43:50.799Z,88.12
2022-10-18T06:46:25.260Z,88.16
2022-10-18T06:48:54.443Z,88.18
2022-10-18T06:51:23.423Z,88.18
2022-10-18T06:54:06.112Z,88.09
2022-10-18T06:56:42.773Z,88.15
2022-10-18T06:59:15.067Z,88.10
2022-10-18T07:01:45.219Z,88.03
2022-10-18T07:04:14.139Z,88.04
2022-10-18T07:06:43.139Z,88.26
2022-10-18T07:09:11.835Z,88.13
2022-10-18T07:11:40.552Z,88.20
2022-10-18T07:14:13.916Z,88.18
2022-10-18T07:16:46.598Z,88.34
2022-10-18T07:19:16.446Z,88.17
2022-10-18T07:21:45.099Z,88.02
2022-10-18T07:24:13.910Z,88.20
2022-10-18T07:26:42.714Z,88.15
2022-10-18T07:29:13.455Z,88.13
2022-10-18T07:31:42.340Z,88.03
2022-10-18T07:34:15.382Z,88.14
2022-10-18T07:36:45.259Z,88.45
2022-10-18T07:39:14.049Z,88.38
2022-10-18T07:41:43.011Z,88.54
2022-10-18T07:44:11.817Z,88.61
2022-10-18T07:46:40.977Z,88.59
2022-10-18T07:49:11.166Z,88.66
2022-10-18T07:51:39.924Z,88.61
2022-10-18T07:54:08.589Z,88.54
2022-10-18T07:56:37.356Z,88.41
2022-10-18T07:59:06.074Z,88.64
2022-10-18T08:01:36.292Z,88.49
2022-10-18T08:04:07.888Z,88.46
2022-10-18T08:06:39.160Z,88.66
2022-10-18T08:09:08.205Z,89.00
2022-10-18T08:11:36.933Z,88.68
2022-10-18T08:14:05.695Z,88.77
2022-10-18T08:16:34.620Z,88.92
2022-10-18T08:19:03.344Z,88.96
2022-10-18T08:21:32.014Z,88.87
2022-10-18T08:24:02.127Z,88.80
2022-10-18T08:26:30.884Z,88.76
2022-10-18T08:29:17.613Z,88.66
2022-10-18T08:31:50.506Z,88.79
2022-10-18T08:34:19.963Z,88.58
2022-10-18T08:36:48.885Z,88.22
2022-10-18T08:39:18.859Z,88.47
2022-10-18T08:42:10.776Z,88.61
2022-10-18T08:44:48.272Z,88.20
2022-10-18T08:47:21.303Z,88.09
2022-10-18T08:49:55.698Z,88.12
2022-10-18T08:52:35.495Z,87.95
2022-10-18T08:55:13.818Z,87.96
2022-10-18T08:57:42.727Z,87.80
2022-10-18T09:00:18.556Z,87.84
2022-10-18T09:03:13.949Z,87.82
2022-10-18T09:05:51.795Z,87.82
2022-10-18T09:08:46.892Z,87.79
2022-10-18T09:11:42.754Z,87.88
2022-10-18T09:14:41.951Z,87.86
2022-10-18T09:17:25.433Z,87.98
2022-10-18T09:20:12.142Z,87.91
2022-10-18T09:22:54.467Z,87.90
2022-10-18T09:25:26.527Z,87.96
2022-10-18T09:28:05.472Z,87.95
2022-10-18T09:30:55.911Z,87.91
2022-10-18T09:33:49.675Z,87.62
2022-10-18T09:36:24.450Z,87.32
2022-10-18T09:39:00.391Z,87.32
2022-10-18T09:41:36.626Z,87.45
2022-10-18T09:44:15.860Z,87.51
2022-10-18T09:46:51.077Z,87.42
2022-10-18T09:49:28.395Z,87.31
2022-10-18T09:52:00.647Z,87.29
2022-10-18T09:54:36.207Z,87.31
2022-10-18T09:57:11.867Z,87.19
2022-10-18T09:59:44.551Z,87.18
2022-10-18T10:02:17.383Z,86.98
2022-10-18T10:04:46.761Z,87.23
2022-10-18T10:07:28.673Z,87.35
2022-10-18T10:10:09.010Z,87.45
2022-10-18T10:12:41.399Z,87.06
2022-10-18T10:15:28.259Z,87.00
2022-10-18T10:18:03.933Z,86.77
2022-10-18T10:20:38.299Z,86.51
2022-10-18T10:23:11.043Z,85.94
2022-10-18T10:25:40.961Z,85.82
2022-10-18T10:28:19.686Z,85.51
2022-10-18T10:30:50.245Z,85.53
2022-10-18T10:33:37.685Z,85.40
2022-10-18T10:36:18.684Z,85.13
2022-10-18T10:38:47.603Z,85.09
2022-10-18T10:41:24.055Z,85.40
2022-10-18T10:43:58.724Z,85.48
2022-10-18T10:46:36.766Z,85.29
2022-10-18T10:52:08.526Z,85.40
2022-10-18T10:54:41.157Z,85.29
2022-10-18T10:57:25.153Z,85.39
2022-10-18T10:59:57.237Z,85.57
2022-10-18T11:02:33.044Z,85.45
2022-10-18T11:05:24.834Z,85.60
2022-10-18T11:07:57.848Z,86.04
2022-10-18T11:10:33.818Z,86.49
2022-10-18T11:13:24.172Z,86.43
2022-10-18T11:16:01.094Z,86.64
2022-10-18T11:18:38.068Z,86.83
2022-10-18T11:21:12.957Z,86.95
2022-10-18T11:23:45.135Z,86.75
2022-10-18T11:26:42.203Z,87.02
2022-10-18T11:29:48.387Z,86.88
2022-10-18T11:32:27.237Z,86.61
2022-10-18T11:35:29.548Z,86.57
2022-10-18T11:38:21.689Z,86.51
2022-10-18T11:41:29.554Z,86.52
2022-10-18T11:44:03.281Z,86.54
2022-10-18T11:46:53.594Z,86.75
2022-10-18T11:49:56.744Z,86.96
2022-10-18T11:52:39.420Z,86.03
2022-10-18T11:55:43.180Z,85.67
2022-10-18T11:58:38.087Z,85.62
2022-10-18T12:01:24.687Z,85.64
2022-10-18T12:04:05.845Z,85.17
2022-10-18T12:06:39.465Z,85.06
2022-10-18T12:09:26.121Z,85.27
2022-10-18T12:12:02.641Z,85.21
2022-10-18T12:14:36.765Z,85.61
2022-10-18T12:17:41.792Z,85.80
2022-10-18T12:20:17.727Z,85.90
2022-10-18T12:22:54.943Z,86.33
2022-10-18T12:25:26.296Z,86.43
2022-10-18T12:28:01.790Z,86.39
2022-10-18T12:30:42.432Z,86.58
2022-10-18T12:33:28.362Z,86.72
2022-10-18T12:36:12.861Z,86.35
2022-10-18T12:38:45.220Z,86.17
2022-10-18T12:41:23.697Z,86.04
2022-10-18T12:43:55.286Z,86.07
2022-10-18T12:46:24.733Z,86.44
2022-10-18T12:49:05.974Z,86.27
2022-10-18T12:51:34.707Z,86.54
2022-10-18T12:54:13.115Z,86.27
2022-10-18T12:56:46.877Z,86.21
2022-10-18T12:59:45.776Z,86.26
2022-10-18T13:02:32.846Z,86.20
2022-10-18T13:05:02.382Z,86.25
2022-10-18T13:07:43.565Z,86.04
2022-10-18T13:10:43.107Z,86.01
2022-10-18T13:13:50.733Z,86.26
2022-10-18T13:16:40.727Z,86.25
2022-10-18T13:19:25.495Z,86.55
2022-10-18T13:22:16.184Z,86.15
2022-10-18T13:25:01.763Z,86.03
2022-10-18T13:27:49.153Z,86.21
2022-10-18T13:30:34.352Z,86.22
2022-10-18T13:33:27.688Z,86.20
2022-10-18T13:35:59.647Z,85.98
2022-10-18T13:38:47.312Z,86.02
2022-10-18T13:41:19.851Z,86.03
2022-10-18T13:44:25.350Z,86.08
2022-10-18T13:47:39.884Z,85.81
2022-10-18T13:53:43.150Z,85.38
2022-10-18T13:56:47.738Z,85.36
2022-10-18T14:00:02.979Z,85.18
2022-10-18T14:03:03.859Z,85.25
2022-10-18T14:05:53.655Z,85.47
2022-10-18T14:08:30.336Z,85.44
2022-10-18T14:11:07.222Z,85.63
2022-10-18T14:13:46.655Z,85.88
2022-10-18T14:16:33.599Z,86.02
2022-10-18T14:19:17.514Z,85.98
2022-10-18T14:21:58.045Z,86.05
2022-10-18T14:24:30.342Z,86.05
2022-10-18T14:27:19.686Z,85.93
2022-10-18T14:29:49.564Z,85.87
2022-10-18T14:32:28.915Z,85.94
2022-10-18T14:35:31.689Z,85.88
2022-10-18T14:37:51.586Z,85.88
2022-10-18T14:40:33.865Z,86.03
2022-10-18T14:43:12.521Z,86.09
2022-10-18T14:45:42.496Z,86.32
2022-10-18T14:48:18.585Z,86.43
2022-10-18T14:51:00.557Z,86.39
2022-10-18T14:53:40.409Z,86.59
2022-10-18T14:56:20.638Z,86.78
2022-10-18T14:58:49.440Z,86.71
2022-10-18T15:01:22.700Z,86.80
2022-10-18T15:03:52.087Z,87.01
2022-10-18T15:06:22.405Z,87.03
2022-10-18T15:08:57.819Z,87.36
2022-10-18T15:11:28.486Z,87.26
2022-10-18T15:14:03.092Z,87.53
2022-10-18T15:16:34.152Z,87.54
2022-10-18T15:19:07.437Z,87.64
2022-10-18T15:21:38.328Z,87.80
2022-10-18T15:24:30.957Z,87.81
2022-10-18T15:27:12.354Z,87.87
2022-10-18T15:29:43.611Z,88.02
2022-10-18T15:32:25.940Z,87.93
2022-10-18T15:34:55.314Z,87.85
2022-10-18T15:37:39.476Z,87.68
2022-10-18T15:40:38.560Z,87.60
2022-10-18T15:43:36.128Z,87.72
2022-10-18T15:46:07.432Z,87.78
2022-10-18T15:48:39.616Z,87.84
2022-10-18T15:51:10.429Z,87.84
2022-10-18T15:53:54.495Z,87.81
2022-10-18T15:56:34.901Z,87.82
2022-10-18T15:59:08.887Z,87.79
2022-10-18T16:01:43.595Z,87.73
2022-10-18T16:04:24.202Z,87.62
2022-10-18T16:06:54.350Z,87.45
2022-10-18T16:09:28.163Z,87.35
2022-10-18T16:11:58.291Z,87.29
2022-10-18T16:14:28.087Z,87.37
2022-10-18T16:17:03.131Z,87.17
2022-10-18T16:19:33.398Z,87.17
2022-10-18T16:22:06.278Z,87.43
2022-10-18T16:24:37.020Z,87.12
2022-10-18T16:27:06.629Z,87.80
2022-10-18T16:29:35.468Z,87.51
2022-10-18T16:32:04.612Z,87.34
2022-10-18T16:34:33.424Z,87.40
2022-10-18T16:37:02.366Z,87.25
2022-10-18T16:39:35.085Z,87.24
2022-10-18T16:42:05.596Z,87.34
2022-10-18T16:44:34.929Z,87.28
2022-10-18T16:47:04.786Z,87.29
2022-10-18T16:49:33.866Z,87.21
2022-10-18T16:52:02.900Z,87.13
2022-10-18T16:54:32.197Z,87.05
2022-10-18T16:57:01.194Z,86.98
2022-10-18T16:59:33.555Z,86.84
2022-10-18T17:02:06.483Z,87.11
2022-10-18T17:04:35.862Z,86.83
2022-10-18T17:07:05.529Z,87.10
2022-10-18T17:09:37.253Z,87.09
2022-10-18T17:12:07.013Z,87.13
2022-10-18T17:14:37.825Z,87.08
2022-10-18T17:17:07.385Z,86.98
2022-10-18T17:19:36.633Z,87.06
2022-10-18T17:22:08.038Z,87.05
2022-10-18T17:24:37.320Z,87.10
2022-10-18T17:27:06.644Z,87.29
2022-10-18T17:29:37.427Z,87.57
2022-10-18T17:32:07.160Z,87.30
2022-10-18T17:34:38.902Z,87.24
2022-10-18T17:37:08.599Z,87.29
2022-10-18T17:39:38.558Z,87.25
2022-10-18T17:42:07.990Z,87.18
2022-10-18T17:44:39.006Z,87.40
2022-10-18T17:47:09.140Z,87.35
2022-10-18T17:49:38.511Z,87.62
2022-10-18T17:52:12.323Z,87.54
2022-10-18T17:54:43.130Z,87.58
2022-10-18T17:57:12.535Z,87.57
2022-10-18T17:59:50.796Z,87.53
2022-10-18T18:02:21.896Z,87.47
2022-10-18T18:04:51.542Z,87.61
2022-10-18T18:07:25.376Z,87.36
2022-10-18T18:09:55.006Z,87.38
2022-10-18T18:12:27.424Z,87.37
2022-10-18T18:14:59.238Z,87.47
2022-10-18T18:17:34.432Z,87.37
2022-10-18T18:20:14.046Z,87.38
2022-10-18T18:22:43.662Z,87.40
2022-10-18T18:25:13.181Z,87.42
2022-10-18T18:27:42.590Z,87.46
2022-10-18T18:30:15.662Z,87.35
2022-10-18T18:32:52.474Z,87.49
2022-10-18T18:35:24.799Z,87.65
2022-10-18T18:37:54.276Z,87.30
2022-10-18T18:40:24.174Z,87.28
2022-10-18T18:43:12.439Z,87.12
2022-10-18T18:45:57.778Z,87.51
2022-10-18T18:48:30.772Z,87.41
2022-10-18T18:51:06.998Z,87.62
2022-10-18T18:53:37.301Z,87.55
2022-10-18T18:56:10.253Z,87.41
2022-10-18T18:58:43.018Z,87.40
2022-10-18T19:01:18.225Z,87.49
2022-10-18T19:03:53.011Z,87.30
2022-10-18T19:06:27.894Z,87.37
2022-10-18T19:09:01.343Z,87.40
2022-10-18T19:11:33.719Z,87.62
2022-10-18T19:14:09.994Z,87.49
2022-10-18T19:16:42.302Z,87.33
2022-10-18T19:19:16.350Z,87.33
2022-10-18T19:21:48.212Z,87.23
2022-10-18T19:24:20.402Z,87.31
2022-10-18T19:26:52.183Z,87.17
2022-10-18T19:29:25.090Z,87.45
2022-10-18T19:31:59.085Z,87.30
2022-10-18T19:34:30.970Z,87.17
2022-10-18T19:37:00.364Z,87.48
2022-10-18T19:39:32.207Z,87.53
2022-10-18T19:42:04.536Z,87.75
2022-10-18T19:44:37.038Z,87.97
2022-10-18T19:47:12.103Z,87.95
2022-10-18T19:49:45.355Z,87.99
2022-10-18T19:52:14.496Z,88.21
2022-10-18T19:54:45.162Z,88.25
2022-10-18T19:57:14.719Z,88.36
2022-10-18T19:59:44.137Z,88.47
2022-10-18T20:02:17.761Z,88.71
2022-10-18T20:04:46.905Z,88.84
2022-10-18T20:07:16.201Z,88.93
2022-10-18T20:09:45.375Z,88.87
2022-10-18T20:12:14.489Z,89.09
2022-10-18T20:14:46.267Z,89.02
2022-10-18T20:17:17.206Z,89.15
2022-10-18T20:19:49.675Z,89.15
2022-10-18T20:22:18.418Z,89.31
2022-10-18T20:24:47.090Z,89.38
2022-10-18T20:27:15.933Z,89.28
2022-10-18T20:29:44.558Z,89.26
2022-10-18T20:32:13.660Z,89.41
2022-10-18T20:34:43.633Z,89.23
2022-10-18T20:37:12.558Z,89.32
2022-10-18T20:39:41.385Z,89.34
2022-10-18T20:42:10.045Z,89.30
2022-10-18T20:44:41.051Z,89.13
2022-10-18T20:47:09.637Z,89.14
2022-10-18T20:49:38.281Z,89.09
2022-10-18T20:52:08.391Z,89.15
2022-10-18T20:54:37.074Z,89.55
2022-10-18T20:57:06.027Z,89.48
2022-10-18T20:59:34.700Z,88.85
2022-10-18T21:02:03.391Z,88.32
2022-10-18T21:04:32.090Z,87.78
2022-10-18T21:07:01.419Z,87.34
2022-10-18T21:09:31.652Z,87.10
2022-10-18T21:12:00.268Z,87.15
2022-10-18T21:14:29.098Z,87.25
2022-10-18T21:16:57.658Z,87.17
2022-10-18T21:19:28.701Z,87.18
2022-10-18T21:21:58.858Z,87.13
2022-10-18T21:24:28.325Z,87.06
2022-10-18T21:26:59.139Z,87.30
2022-10-18T21:29:30.939Z,87.42
2022-10-18T21:32:00.963Z,87.63
2022-10-18T21:34:29.666Z,87.84
2022-10-18T21:36:58.602Z,87.78
2022-10-18T21:39:27.588Z,87.80
2022-10-18T21:41:59.091Z,87.83
2022-10-18T21:44:28.406Z,88.14
2022-10-18T21:47:00.091Z,88.14
2022-10-18T21:49:35.196Z,88.30
2022-10-18T21:52:06.628Z,88.35
2022-10-18T21:54:35.336Z,88.24
2022-10-18T21:57:05.805Z,88.36
2022-10-18T21:59:34.800Z,88.09
2022-10-18T22:02:03.579Z,88.06
2022-10-18T22:04:35.788Z,88.18
2022-10-18T22:07:05.448Z,87.97
2022-10-18T22:09:37.262Z,87.98
2022-10-18T22:12:10.936Z,88.00
2022-10-18T22:14:41.238Z,88.04
2022-10-18T22:17:11.199Z,88.07
2022-10-18T22:19:43.641Z,88.04
2022-10-18T22:22:12.464Z,88.09
2022-10-18T22:24:42.533Z,88.09
2022-10-18T22:27:14.619Z,88.14
2022-10-18T22:29:44.062Z,88.27
2022-10-18T22:32:31.446Z,88.39
2022-10-18T22:35:00.523Z,88.47
2022-10-18T22:37:29.550Z,88.54
2022-10-18T22:40:00.216Z,88.51
2022-10-18T22:42:31.773Z,88.57
2022-10-18T22:45:00.774Z,88.51
2022-10-18T22:47:29.576Z,88.62
2022-10-18T22:50:02.796Z,88.75
2022-10-18T22:52:32.823Z,88.61
2022-10-18T22:55:05.570Z,88.79
2022-10-18T22:57:36.975Z,88.73
2022-10-18T23:00:09.455Z,88.76
2022-10-18T23:02:38.503Z,88.93
2022-10-18T23:05:07.965Z,89.02
2022-10-18T23:07:36.592Z,88.89
2022-10-18T23:10:05.891Z,88.72
2022-10-18T23:12:36.037Z,88.91
2022-10-18T23:15:05.561Z,89.12
2022-10-18T23:17:34.453Z,89.21
2022-10-18T23:20:03.316Z,89.19
2022-10-18T23:22:32.264Z,89.32
2022-10-18T23:25:01.108Z,89.41
2022-10-18T23:27:30.753Z,89.44
2022-10-18T23:30:00.809Z,89.63
2022-10-18T23:32:29.676Z,89.71
2022-10-18T23:34:58.285Z,89.84
2022-10-18T23:37:27.318Z,89.97
2022-10-18T23:39:55.892Z,89.83
2022-10-18T23:42:24.641Z,89.94
2022-10-18T23:44:53.551Z,90.04
2022-10-18T23:47:23.525Z,89.90
2022-10-18T23:49:53.316Z,89.77
2022-10-18T23:52:22.068Z,90.06
2022-10-18T23:54:50.595Z,90.06
2022-10-18T23:57:19.541Z,90.00
2022-10-18T23:59:48.311Z,90.24
